Impacts TAF Board
For situational awareness. Not to be used for flight planning purposes.
IDs:

PABE - Bethel Arpt, AK, US

Issued at 1129 UTC 03 Dec 2021
Updated at 1703 UTC 03 Dec 2021
Potential Impact None Slight Moderate High
Time1653Z 03/18Z 03/19Z 03/20Z 03/21Z 03/22Z 03/23Z 04/00Z 04/01Z 04/02Z 04/03Z 04/04Z 04/05Z 04/06Z>>
Type OBS PRVL PRVL PRVL PRVL PRVL PRVL PRVL PRVL PRVL PRVL PRVL PRVL PRVL
VIS 10 3 3 3 1 1 1 1 1 2 2 2 2 2
CIG 75 30 30 30 5 5 5 5 5 10 10 10 10 10
Cover OVC OVC OVC OVC OVC OVC OVC OVC OVC OVC OVC OVC OVC OVC
FltCat VFR MVFR MVFR MVFR IFR IFR IFR IFR IFR IFR IFR IFR IFR IFR
WX -- -SN -SN -SN -SN BR -SN BR -SN BR -SN BR -SN BR -SN BR -SN BR -SN BR -SN BR -SN BR
WDir 60 120 120 120 140 140 140 140 140 140 140 140 140 140
WSpd 5 12 12 12 15 15 15 15 15 12 12 12 12 12
WGst -- -- -- -- -- -- -- -- -- -- -- -- -- --
WSHgt -- -- -- -- -- -- -- -- -- -- -- -- -- --
WSDir -- -- -- -- -- -- -- -- -- -- -- -- -- --
WSSpd -- -- -- -- -- -- -- -- -- -- -- -- -- --
Raw TAF
PABE 031129Z 0312/0412 03006KT P6SM SCT080
  FM031500 09010KT P6SM BKN080
  FM031800 12012KT 3SM -SN OVC030
  FM032100 14015KT 1SM -SN BR OVC005
  FM040200 14012KT 2SM -SN BR OVC010


Raw METAR
PABE 031653Z AUTO 06005KT 10SM OVC075 M21/M23 A3018 RMK AO2 SLP223 T12061233 TSNO
PABE 031553Z AUTO 06004KT 10SM OVC080 M22/M24 A3020 RMK AO2 SLP231 T12171244 TSNO
PABE 031453Z AUTO 08005KT 10SM BKN085 M23/M26 A3023 RMK AO2 SLP240 T12331261 58029 TSNO

METAR Board
Radar Display
Forecast Discussion
For situational awareness. Not to be used for flight planning purposes.